Terminal Aerodrome Forecast
Issued by NWS

Home | Current Version | Previous Version | Text Only | Print | Product List | Glossary On
Versions: 1 2 3 4 5 6 7 8 9 10 11 12 13 14 15 16 17 18 19 20 21 22 23 24 25 26 27 28 29 30 31 32 33 34 35 36 37 38 39 40 41 42 43 44 45 46
275
FTUS41 KBOX 281506 AAA
TAFBED
TAF AMD
KBED 281506Z 2815/2912 00000KT 5SM BR OVC005
     FM282000 00000KT 3SM -RA OVC008
     FM290000 00000KT 2SM -RA OVC004
     FM290700 00000KT 2SM BR OVC003
     FM290800 00000KT P6SM OVC005
     FM291100 34004KT P6SM OVC015=

USA.gov is the U.S. government's official web portal to all federal, state and local government web resources and services.